Time;durP1;ratioP1;P1;durP2;ratioP2;P2;SDS_P1;SDS_P2;PMS_P1;PMS_P2;Temp;Humidity;BMP_temperature;BMP_pressure;BME280_temperature;BME280_humidity;BME280_pressure;Samples;Min_cycle;Max_cycle;Signal;HPM_P1;HPM_P2
2022/04/06 00:00:22;;;;;;;25.00;6.78;;;;;;;;;;4965624;28;20097;-80
2022/04/06 00:02:48;;;;;;;27.83;6.78;;;;;;;;;;4990875;28;20473;-81
2022/04/06 00:05:14;;;;;;;22.38;6.55;;;;;;;;;;4975645;28;20118;-81
2022/04/06 00:07:41;;;;;;;26.70;7.07;;;;;;;;;;4998292;28;20079;-79
2022/04/06 00:10:09;;;;;;;23.58;7.05;;;;;;;;;;4987231;28;20118;-82
2022/04/06 00:12:36;;;;;;;24.85;7.40;;;;;;;;;;4993725;28;20100;-81
2022/04/06 00:15:06;;;;;;;24.33;6.55;;;;;;;;;;4993553;28;20058;-82
2022/04/06 00:17:33;;;;;;;24.45;7.57;;;;;;;;;;4973818;28;20082;-81
2022/04/06 00:19:59;;;;;;;24.77;7.10;;;;;;;;;;4988787;28;20067;-80
2022/04/06 00:22:25;;;;;;;28.58;7.82;;;;;;;;;;4972743;28;20097;-80
2022/04/06 00:24:52;;;;;;;24.52;7.32;;;;;;;;;;4988564;28;20137;-80
2022/04/06 00:27:18;;;;;;;29.17;7.75;;;;;;;;;;4991832;28;20082;-80
2022/04/06 00:29:45;;;;;;;25.90;7.43;;;;;;;;;;4973136;28;20089;-81
2022/04/06 00:32:11;;;;;;;29.27;7.80;;;;;;;;;;4989287;28;20059;-82
2022/04/06 00:37:23;;;;;;;30.92;7.45;;;;;;;;;;4991679;28;20113;-81
2022/04/06 00:39:49;;;;;;;26.63;7.22;;;;;;;;;;4973552;28;20055;-81
2022/04/06 00:42:16;;;;;;;28.83;7.45;;;;;;;;;;4991303;28;20082;-82
2022/04/06 00:44:42;;;;;;;25.38;7.13;;;;;;;;;;4989831;28;20059;-81
2022/04/06 00:47:08;;;;;;;21.77;7.05;;;;;;;;;;4974585;28;20090;-80
2022/04/06 00:49:35;;;;;;;23.75;6.88;;;;;;;;;;4990405;28;20056;-80
2022/04/06 00:52:03;;;;;;;21.80;6.93;;;;;;;;;;4972870;28;20074;-80
2022/04/06 00:54:30;;;;;;;28.60;8.23;;;;;;;;;;4981042;28;20093;-82
2022/04/06 00:56:57;;;;;;;22.60;7.43;;;;;;;;;;4971196;28;20046;-80
2022/04/06 00:59:24;;;;;;;24.02;6.88;;;;;;;;;;4973272;28;20051;-82
2022/04/06 01:01:50;;;;;;;26.75;7.65;;;;;;;;;;4973283;28;20047;-81
2022/04/06 01:04:17;;;;;;;24.17;7.22;;;;;;;;;;4972557;28;20061;-81
2022/04/06 01:06:44;;;;;;;24.95;7.30;;;;;;;;;;4989971;28;20043;-80
2022/04/06 01:09:10;;;;;;;21.17;6.50;;;;;;;;;;4990395;28;20043;-82
2022/04/06 01:11:37;;;;;;;20.05;7.30;;;;;;;;;;4989422;28;20058;-81
2022/04/06 01:14:06;;;;;;;31.33;7.72;;;;;;;;;;4988448;28;20059;-80
2022/04/06 01:16:32;;;;;;;22.15;7.03;;;;;;;;;;4987865;28;20109;-80
2022/04/06 01:18:58;;;;;;;21.88;6.82;;;;;;;;;;4990481;28;20526;-80
2022/04/06 01:21:25;;;;;;;24.20;6.80;;;;;;;;;;5002807;28;20086;-79
2022/04/06 01:23:52;;;;;;;25.00;7.60;;;;;;;;;;4969835;28;20531;-81
2022/04/06 01:26:19;;;;;;;27.23;7.50;;;;;;;;;;4967981;28;20054;-80
2022/04/06 01:28:45;;;;;;;26.85;7.05;;;;;;;;;;4989991;28;20097;-81
2022/04/06 01:31:12;;;;;;;21.63;7.40;;;;;;;;;;4968881;28;20102;-81
2022/04/06 01:33:39;;;;;;;22.42;6.32;;;;;;;;;;4986561;28;20113;-81
2022/04/06 01:36:05;;;;;;;23.77;7.20;;;;;;;;;;4983526;28;20110;-79
2022/04/06 01:38:31;;;;;;;20.77;7.03;;;;;;;;;;4985081;28;20043;-80
2022/04/06 01:40:58;;;;;;;20.35;5.93;;;;;;;;;;4987817;28;20525;-81
2022/04/06 01:43:24;;;;;;;22.48;6.85;;;;;;;;;;4989723;28;20059;-80
2022/04/06 01:45:51;;;;;;;15.38;6.13;;;;;;;;;;4972434;28;20510;-81
2022/04/06 01:48:17;;;;;;;25.70;6.90;;;;;;;;;;5004185;28;22041;-81
2022/04/06 01:53:29;;;;;;;21.23;5.85;;;;;;;;;;4984152;28;20097;-80
2022/04/06 01:55:56;;;;;;;18.02;5.90;;;;;;;;;;4987603;28;20149;-81
2022/04/06 01:58:22;;;;;;;19.10;5.78;;;;;;;;;;4988805;28;20090;-80
2022/04/06 02:00:49;;;;;;;17.63;6.05;;;;;;;;;;4988451;28;20066;-81
2022/04/06 02:03:16;;;;;;;23.45;6.32;;;;;;;;;;4987343;28;20062;-81
2022/04/06 02:05:43;;;;;;;20.25;5.88;;;;;;;;;;4987741;28;20054;-79
2022/04/06 02:08:10;;;;;;;19.60;5.93;;;;;;;;;;4988637;28;20082;-80
2022/04/06 02:10:39;;;;;;;20.65;6.43;;;;;;;;;;4971718;28;20078;-82
2022/04/06 02:13:05;;;;;;;21.33;5.68;;;;;;;;;;4989303;28;20055;-80
2022/04/06 02:15:32;;;;;;;18.10;5.10;;;;;;;;;;4986998;28;20059;-80
2022/04/06 02:18:00;;;;;;;22.83;6.00;;;;;;;;;;4992536;28;20128;-80
2022/04/06 02:20:26;;;;;;;20.77;5.85;;;;;;;;;;4992245;28;20118;-80
2022/04/06 02:22:52;;;;;;;19.80;5.53;;;;;;;;;;4968576;28;20090;-80
2022/04/06 02:25:19;;;;;;;17.15;5.25;;;;;;;;;;4989272;28;20173;-81
2022/04/06 02:27:48;;;;;;;20.27;5.43;;;;;;;;;;4974394;28;20589;-82
2022/04/06 02:30:15;;;;;;;15.93;6.15;;;;;;;;;;4991261;28;20114;-80
2022/04/06 02:32:41;;;;;;;16.05;4.78;;;;;;;;;;4991769;28;20162;-81
2022/04/06 02:35:08;;;;;;;29.08;7.10;;;;;;;;;;4991564;28;20462;-81
2022/04/06 02:37:35;;;;;;;13.05;4.68;;;;;;;;;;4974408;28;21037;-79
2022/04/06 02:40:02;;;;;;;17.10;4.82;;;;;;;;;;4974824;28;20073;-82
2022/04/06 02:42:28;;;;;;;18.08;5.00;;;;;;;;;;4992467;28;20050;-80
2022/04/06 02:44:55;;;;;;;13.07;4.70;;;;;;;;;;4977905;28;20070;-81
2022/04/06 02:47:21;;;;;;;14.75;4.45;;;;;;;;;;4990450;28;20105;-82
2022/04/06 02:49:47;;;;;;;14.60;4.35;;;;;;;;;;4975115;28;20141;-81
2022/04/06 02:52:14;;;;;;;13.38;3.80;;;;;;;;;;4992407;28;20129;-81
2022/04/06 02:54:40;;;;;;;12.77;4.10;;;;;;;;;;4974018;28;20047;-81
2022/04/06 02:57:06;;;;;;;11.52;3.25;;;;;;;;;;4988460;28;20083;-82
2022/04/06 02:59:33;;;;;;;14.65;3.80;;;;;;;;;;4991682;28;20086;-82
2022/04/06 03:01:59;;;;;;;11.70;3.05;;;;;;;;;;4973912;28;20051;-79
2022/04/06 03:04:26;;;;;;;12.13;3.30;;;;;;;;;;4978616;28;20070;-82
2022/04/06 03:06:53;;;;;;;11.98;3.55;;;;;;;;;;4988602;28;20585;-83
2022/04/06 03:09:19;;;;;;;15.88;3.55;;;;;;;;;;4991048;28;20220;-80
2022/04/06 03:11:45;;;;;;;13.40;3.13;;;;;;;;;;4991934;28;20538;-81
2022/04/06 03:14:12;;;;;;;13.65;3.03;;;;;;;;;;4992212;28;20973;-80
2022/04/06 03:16:38;;;;;;;15.07;2.80;;;;;;;;;;4993401;28;20089;-81
2022/04/06 03:19:04;;;;;;;11.05;2.47;;;;;;;;;;4978255;28;20050;-80
2022/04/06 03:21:31;;;;;;;9.23;2.92;;;;;;;;;;4974541;28;20134;-82
2022/04/06 03:23:58;;;;;;;10.88;2.55;;;;;;;;;;4982028;28;20090;-82
2022/04/06 03:26:24;;;;;;;10.13;3.10;;;;;;;;;;4983139;28;20094;-80
2022/04/06 03:28:51;;;;;;;16.73;3.38;;;;;;;;;;4973834;28;20054;-80
2022/04/06 03:31:17;;;;;;;13.02;2.22;;;;;;;;;;4991105;28;20126;-80
2022/04/06 03:33:43;;;;;;;12.55;2.60;;;;;;;;;;4992497;28;20138;-82
2022/04/06 03:36:10;;;;;;;13.60;2.40;;;;;;;;;;4978627;28;20119;-82
2022/04/06 03:38:36;;;;;;;9.25;2.15;;;;;;;;;;4992181;28;20050;-81
2022/04/06 03:41:02;;;;;;;7.13;2.38;;;;;;;;;;4993262;28;20141;-82
2022/04/06 03:43:29;;;;;;;11.13;2.25;;;;;;;;;;5007376;28;20145;-82
2022/04/06 03:45:55;;;;;;;11.48;2.00;;;;;;;;;;4975192;28;20043;-80
2022/04/06 03:48:22;;;;;;;8.60;2.28;;;;;;;;;;4987419;28;20066;-82
2022/04/06 03:50:50;;;;;;;7.47;1.73;;;;;;;;;;4992145;28;20102;-82
2022/04/06 03:53:17;;;;;;;12.20;2.28;;;;;;;;;;4990295;28;20055;-82
2022/04/06 03:55:43;;;;;;;10.63;1.95;;;;;;;;;;4990932;28;20054;-81
2022/04/06 03:58:10;;;;;;;6.80;1.90;;;;;;;;;;4973768;28;20086;-82
2022/04/06 04:00:36;;;;;;;12.77;1.85;;;;;;;;;;4991593;28;20093;-79
2022/04/06 04:03:02;;;;;;;9.68;1.70;;;;;;;;;;4987647;28;20082;-80
2022/04/06 04:05:29;;;;;;;10.63;2.13;;;;;;;;;;5002326;28;20058;-80
2022/04/06 04:07:55;;;;;;;8.20;2.22;;;;;;;;;;4974813;28;20061;-82
2022/04/06 04:10:22;;;;;;;7.95;1.70;;;;;;;;;;4974952;28;20082;-81
2022/04/06 04:12:48;;;;;;;10.20;2.03;;;;;;;;;;4987933;28;20043;-82
2022/04/06 04:15:15;;;;;;;5.65;1.88;;;;;;;;;;4988302;28;20110;-81
2022/04/06 04:17:41;;;;;;;7.50;1.73;;;;;;;;;;4991276;28;20098;-81
2022/04/06 04:20:08;;;;;;;6.97;1.70;;;;;;;;;;4971425;28;20068;-81
2022/04/06 04:22:34;;;;;;;8.32;1.80;;;;;;;;;;4971160;28;20943;-81
2022/04/06 04:25:00;;;;;;;6.75;1.67;;;;;;;;;;4973825;28;20094;-82
2022/04/06 04:27:27;;;;;;;6.18;1.52;;;;;;;;;;4992378;28;20083;-81
2022/04/06 04:29:53;;;;;;;7.22;1.73;;;;;;;;;;4973709;28;20562;-82
2022/04/06 04:32:20;;;;;;;9.35;1.60;;;;;;;;;;4990308;28;20055;-81
2022/04/06 04:34:47;;;;;;;5.38;2.30;;;;;;;;;;4971966;28;20137;-81
2022/04/06 04:37:13;;;;;;;12.75;1.90;;;;;;;;;;4971608;28;20130;-82
2022/04/06 04:39:39;;;;;;;10.05;2.00;;;;;;;;;;4990530;28;20055;-81
2022/04/06 04:42:06;;;;;;;9.05;1.92;;;;;;;;;;4987509;28;20205;-83
2022/04/06 04:44:32;;;;;;;14.25;2.65;;;;;;;;;;4971290;28;20171;-82
2022/04/06 04:46:59;;;;;;;9.95;2.20;;;;;;;;;;4968940;28;20058;-81
2022/04/06 04:49:25;;;;;;;12.25;2.20;;;;;;;;;;4989623;28;20046;-82
2022/04/06 04:51:52;;;;;;;6.82;2.30;;;;;;;;;;4973046;28;20114;-82
2022/04/06 04:54:23;;;;;;;6.68;1.85;;;;;;;;;;4971766;28;20063;-82
2022/04/06 04:56:55;;;;;;;12.07;2.20;;;;;;;;;;4987202;28;20843;-80
2022/04/06 04:59:21;;;;;;;10.95;2.47;;;;;;;;;;4991217;28;20383;-82
2022/04/06 05:01:48;;;;;;;12.30;2.58;;;;;;;;;;4991759;28;20074;-82
2022/04/06 05:04:14;;;;;;;9.65;2.50;;;;;;;;;;4976184;28;20055;-80
2022/04/06 05:06:41;;;;;;;11.13;2.30;;;;;;;;;;4988065;28;20054;-82
2022/04/06 05:09:07;;;;;;;9.80;2.38;;;;;;;;;;4979595;28;20061;-81
2022/04/06 05:11:33;;;;;;;12.73;2.50;;;;;;;;;;4989247;28;20051;-82
2022/04/06 05:14:00;;;;;;;7.35;2.50;;;;;;;;;;4986375;28;20456;-82
2022/04/06 05:16:26;;;;;;;11.23;2.97;;;;;;;;;;4966317;28;20175;-80
2022/04/06 05:18:55;;;;;;;7.45;2.25;;;;;;;;;;4983947;28;20094;-82
2022/04/06 05:21:21;;;;;;;11.30;2.25;;;;;;;;;;5003505;28;20154;-81
2022/04/06 05:23:48;;;;;;;12.18;2.50;;;;;;;;;;4971123;28;20129;-81
2022/04/06 05:26:14;;;;;;;8.88;2.15;;;;;;;;;;4991947;28;20118;-80
2022/04/06 05:28:40;;;;;;;8.98;2.22;;;;;;;;;;4973016;28;20086;-80
2022/04/06 05:31:07;;;;;;;13.52;2.80;;;;;;;;;;4973654;28;20066;-81
2022/04/06 05:33:33;;;;;;;7.13;2.30;;;;;;;;;;4992724;28;20055;-82
2022/04/06 05:35:59;;;;;;;14.38;2.53;;;;;;;;;;4970259;28;20146;-80
2022/04/06 05:38:26;;;;;;;14.60;3.40;;;;;;;;;;4989024;28;20086;-81
2022/04/06 05:40:52;;;;;;;11.80;3.25;;;;;;;;;;4992398;28;20078;-81
2022/04/06 05:43:19;;;;;;;15.15;3.00;;;;;;;;;;4972702;28;20051;-82
2022/04/06 05:45:45;;;;;;;15.52;3.10;;;;;;;;;;4974049;28;20065;-81
2022/04/06 05:48:11;;;;;;;12.13;3.17;;;;;;;;;;4991323;28;20051;-80
2022/04/06 05:50:38;;;;;;;14.50;3.97;;;;;;;;;;4991603;28;20089;-80
2022/04/06 05:53:05;;;;;;;11.80;3.80;;;;;;;;;;4993235;28;20065;-82
2022/04/06 05:55:31;;;;;;;18.38;3.90;;;;;;;;;;4994897;28;20920;-81
2022/04/06 05:57:58;;;;;;;11.57;4.10;;;;;;;;;;4992530;28;20094;-81
2022/04/06 06:00:24;;;;;;;18.15;4.55;;;;;;;;;;4995029;28;20134;-79
2022/04/06 06:02:51;;;;;;;16.08;4.65;;;;;;;;;;4977214;28;20082;-81
2022/04/06 06:05:17;;;;;;;13.95;5.05;;;;;;;;;;4984803;28;20598;-81
2022/04/06 06:07:44;;;;;;;15.55;4.45;;;;;;;;;;4976979;28;20838;-82
2022/04/06 06:10:10;;;;;;;17.23;4.95;;;;;;;;;;4975916;28;20086;-81
2022/04/06 06:12:36;;;;;;;16.30;4.22;;;;;;;;;;4994013;28;20059;-81
2022/04/06 06:15:04;;;;;;;14.80;4.53;;;;;;;;;;4969685;28;20042;-81
2022/04/06 06:17:30;;;;;;;10.00;4.00;;;;;;;;;;4976225;28;20142;-82
2022/04/06 06:19:57;;;;;;;14.40;4.15;;;;;;;;;;4974560;28;20114;-81
2022/04/06 06:22:23;;;;;;;11.48;3.85;;;;;;;;;;5006842;28;20035;-80
2022/04/06 06:24:49;;;;;;;13.65;4.50;;;;;;;;;;4992017;28;20086;-80
2022/04/06 06:27:19;;;;;;;17.70;4.53;;;;;;;;;;4976710;28;20153;-81
2022/04/06 06:29:49;;;;;;;12.02;3.65;;;;;;;;;;4968766;28;20816;-81
2022/04/06 06:32:16;;;;;;;11.05;3.47;;;;;;;;;;4974646;28;20595;-80
2022/04/06 06:34:42;;;;;;;12.90;3.35;;;;;;;;;;4991177;28;20114;-81
2022/04/06 06:37:10;;;;;;;16.67;3.70;;;;;;;;;;4969911;28;20047;-81
2022/04/06 06:39:37;;;;;;;20.30;3.20;;;;;;;;;;4992527;28;20078;-82
2022/04/06 06:42:04;;;;;;;19.58;3.75;;;;;;;;;;4990764;28;20085;-81
2022/04/06 06:44:30;;;;;;;12.85;2.63;;;;;;;;;;4991881;28;20090;-81
2022/04/06 06:46:57;;;;;;;12.55;2.85;;;;;;;;;;4991805;28;20507;-81
2022/04/06 06:49:25;;;;;;;13.48;2.80;;;;;;;;;;4993437;28;20051;-81
2022/04/06 06:51:52;;;;;;;12.43;2.72;;;;;;;;;;4974620;28;20035;-81
2022/04/06 06:54:19;;;;;;;10.23;2.22;;;;;;;;;;5004812;28;20078;-81
2022/04/06 06:56:45;;;;;;;10.55;2.60;;;;;;;;;;4968558;28;20617;-81
2022/04/06 06:59:12;;;;;;;17.30;2.65;;;;;;;;;;4976336;28;20074;-81
2022/04/06 07:01:38;;;;;;;9.00;1.85;;;;;;;;;;4992504;28;20086;-82
2022/04/06 07:04:07;;;;;;;9.48;1.95;;;;;;;;;;4974337;28;20070;-82
2022/04/06 07:06:33;;;;;;;12.02;2.10;;;;;;;;;;4929513;28;1235301;-82
2022/04/06 07:09:00;;;;;;;9.68;1.73;;;;;;;;;;4992848;28;20074;-80
2022/04/06 07:11:26;;;;;;;6.82;1.55;;;;;;;;;;4993364;28;20097;-82
2022/04/06 07:13:52;;;;;;;6.80;1.80;;;;;;;;;;4974381;28;20055;-82
2022/04/06 07:16:19;;;;;;;9.70;1.63;;;;;;;;;;4975647;28;20545;-82
2022/04/06 07:18:45;;;;;;;9.55;2.17;;;;;;;;;;4989032;28;20114;-82
2022/04/06 07:21:12;;;;;;;8.43;1.88;;;;;;;;;;4981055;28;20110;-82
2022/04/06 07:23:40;;;;;;;7.38;1.70;;;;;;;;;;4992716;28;20061;-81
2022/04/06 07:26:06;;;;;;;9.98;1.40;;;;;;;;;;4995913;28;21337;-81
2022/04/06 07:28:32;;;;;;;8.57;1.88;;;;;;;;;;4975239;28;20059;-79
2022/04/06 07:30:59;;;;;;;8.93;1.60;;;;;;;;;;4997301;28;20059;-78
2022/04/06 07:33:29;;;;;;;7.32;1.98;;;;;;;;;;4988117;28;20062;-78
2022/04/06 07:35:55;;;;;;;8.25;1.52;;;;;;;;;;4991127;28;20145;-79
2022/04/06 07:38:21;;;;;;;10.88;2.60;;;;;;;;;;4976955;28;20110;-80
2022/04/06 07:40:48;;;;;;;7.32;1.95;;;;;;;;;;4989917;28;20550;-80
2022/04/06 07:43:14;;;;;;;9.48;2.05;;;;;;;;;;4975192;28;20129;-80
2022/04/06 07:45:40;;;;;;;8.10;1.73;;;;;;;;;;4978005;28;20067;-81
2022/04/06 07:48:07;;;;;;;8.48;1.67;;;;;;;;;;4993977;28;20055;-81
2022/04/06 07:50:33;;;;;;;8.15;2.00;;;;;;;;;;4995010;28;20094;-81
2022/04/06 07:53:00;;;;;;;7.05;2.10;;;;;;;;;;4976738;28;20054;-77
2022/04/06 07:55:26;;;;;;;6.65;1.75;;;;;;;;;;4969471;28;20051;-79
2022/04/06 07:57:52;;;;;;;7.97;2.03;;;;;;;;;;4992326;28;20058;-80
2022/04/06 08:00:19;;;;;;;12.57;1.77;;;;;;;;;;4991773;28;20613;-81
2022/04/06 08:02:46;;;;;;;11.75;2.15;;;;;;;;;;4990601;28;20106;-81
2022/04/06 08:05:13;;;;;;;9.68;2.22;;;;;;;;;;4991510;28;20051;-80
2022/04/06 08:07:41;;;;;;;9.43;1.95;;;;;;;;;;4991443;28;20054;-78
2022/04/06 08:10:08;;;;;;;15.02;2.40;;;;;;;;;;4975211;28;20062;-80
2022/04/06 08:12:35;;;;;;;9.73;2.30;;;;;;;;;;4993455;28;20379;-79
2022/04/06 08:15:02;;;;;;;6.50;1.98;;;;;;;;;;4991625;28;20047;-81
2022/04/06 08:17:31;;;;;;;9.55;2.03;;;;;;;;;;4975478;28;20094;-80
2022/04/06 08:19:57;;;;;;;10.63;1.90;;;;;;;;;;4989246;28;20089;-79
2022/04/06 08:22:34;;;;;;;10.10;2.17;;;;;;;;;;4991858;28;20564;-79
2022/04/06 08:25:14;;;;;;;9.10;2.10;;;;;;;;;;5007857;28;20069;-80
2022/04/06 08:28:04;;;;;;;7.95;2.65;;;;;;;;;;4990587;28;20071;-80
2022/04/06 08:30:55;;;;;;;6.30;2.00;;;;;;;;;;4992690;28;20118;-77
2022/04/06 08:33:20;;;;;;;10.02;2.28;;;;;;;;;;4955507;28;20133;-80
2022/04/06 08:36:20;;;;;;;13.45;2.70;;;;;;;;;;4974465;28;20050;-80
2022/04/06 08:38:48;;;;;;;7.88;3.05;;;;;;;;;;4974694;28;20536;-80
2022/04/06 08:41:35;;;;;;;7.53;2.75;;;;;;;;;;4975788;28;20094;-77
2022/04/06 08:44:02;;;;;;;14.65;2.97;;;;;;;;;;4972270;28;20093;-79
2022/04/06 08:46:31;;;;;;;15.88;3.78;;;;;;;;;;4974871;28;20063;-79
2022/04/06 08:48:59;;;;;;;10.25;3.83;;;;;;;;;;4991683;28;20043;-80
2022/04/06 08:51:27;;;;;;;10.07;3.25;;;;;;;;;;4993301;28;20161;-79
2022/04/06 08:53:54;;;;;;;15.63;3.10;;;;;;;;;;4986521;28;20501;-80
2022/04/06 08:56:21;;;;;;;11.88;3.42;;;;;;;;;;4998664;28;20082;-80
2022/04/06 08:58:48;;;;;;;12.85;3.22;;;;;;;;;;4980289;28;20070;-79
2022/04/06 09:01:15;;;;;;;16.77;3.45;;;;;;;;;;4975184;28;20118;-80
2022/04/06 09:03:41;;;;;;;13.40;3.63;;;;;;;;;;4972700;28;20061;-81
2022/04/06 09:06:08;;;;;;;10.38;3.40;;;;;;;;;;4987150;28;20952;-78
2022/04/06 09:08:39;;;;;;;9.50;3.78;;;;;;;;;;4991300;28;20055;-79
2022/04/06 09:11:06;;;;;;;;;;;;;;;;;;4977984;28;20048;-79
2022/04/06 09:13:32;;;;;;;10.88;4.18;;;;;;;;;;4973110;28;46549;-79
2022/04/06 09:16:02;;;;;;;11.68;3.63;;;;;;;;;;4992143;28;20055;-79
2022/04/06 09:18:32;;;;;;;16.93;4.60;;;;;;;;;;4971163;28;20138;-79
2022/04/06 09:21:00;;;;;;;12.10;3.85;;;;;;;;;;5006131;28;20110;-80
2022/04/06 09:23:28;;;;;;;9.88;3.65;;;;;;;;;;4990824;28;20094;-77
2022/04/06 09:25:55;;;;;;;14.60;4.03;;;;;;;;;;4974182;28;20103;-78
2022/04/06 09:28:21;;;;;;;9.77;3.88;;;;;;;;;;4974269;28;20047;-79
2022/04/06 09:30:47;;;;;;;11.82;4.75;;;;;;;;;;4991289;28;20105;-79
2022/04/06 09:33:18;;;;;;;13.63;4.82;;;;;;;;;;4994043;28;20054;-79
2022/04/06 09:35:45;;;;;;;;;;;;;;;;;;4986077;28;20046;-78
2022/04/06 09:38:15;;;;;;;11.38;3.75;;;;;;;;;;4988548;28;45032;-79
2022/04/06 09:40:42;;;;;;;16.60;4.40;;;;;;;;;;4976538;28;20154;-78
2022/04/06 09:43:09;;;;;;;15.32;5.05;;;;;;;;;;4989127;28;20035;-80
2022/04/06 09:48:21;;;;;;;13.13;4.60;;;;;;;;;;4986330;28;20501;-80
2022/04/06 09:50:57;;;;;;;10.90;3.97;;;;;;;;;;4986608;28;20059;-80
2022/04/06 09:53:27;;;;;;;13.52;4.43;;;;;;;;;;4986988;28;20043;-80
2022/04/06 09:55:54;;;;;;;10.93;4.30;;;;;;;;;;4973903;28;20416;-80
2022/04/06 09:58:21;;;;;;;11.93;4.30;;;;;;;;;;4990144;28;20985;-79
2022/04/06 10:00:48;;;;;;;16.15;4.70;;;;;;;;;;4985289;28;20146;-78
2022/04/06 10:03:15;;;;;;;12.90;4.32;;;;;;;;;;4964274;28;20646;-78
2022/04/06 10:05:42;;;;;;;16.98;4.75;;;;;;;;;;5004698;28;20062;-80
2022/04/06 10:08:09;;;;;;;18.05;5.15;;;;;;;;;;4975602;28;20046;-79
2022/04/06 10:10:36;;;;;;;13.48;4.72;;;;;;;;;;4990689;28;20059;-79
2022/04/06 10:13:10;;;;;;;17.00;4.65;;;;;;;;;;4990408;28;20061;-80
2022/04/06 10:15:57;;;;;;;11.32;4.60;;;;;;;;;;4977075;28;20065;-79
2022/04/06 10:18:24;;;;;;;12.25;4.40;;;;;;;;;;4988811;28;20493;-79
2022/04/06 10:20:54;;;;;;;16.83;4.55;;;;;;;;;;4991361;28;20070;-80
2022/04/06 10:23:35;;;;;;;10.50;4.15;;;;;;;;;;4991258;28;20176;-80
2022/04/06 10:26:24;;;;;;;12.25;5.15;;;;;;;;;;4974110;28;20616;-80
2022/04/06 10:28:51;;;;;;;10.88;5.05;;;;;;;;;;5003896;28;20078;-81
2022/04/06 10:31:28;;;;;;;15.15;4.93;;;;;;;;;;4973046;28;20099;-81
2022/04/06 10:34:13;;;;;;;17.40;5.50;;;;;;;;;;4987937;28;20070;-79
2022/04/06 10:36:41;;;;;;;16.08;5.15;;;;;;;;;;4992137;28;20082;-78
2022/04/06 10:39:08;;;;;;;18.27;5.25;;;;;;;;;;4994022;28;20419;-80
2022/04/06 10:41:37;;;;;;;14.73;5.05;;;;;;;;;;4994057;28;20083;-78
2022/04/06 10:44:33;;;;;;;15.15;5.22;;;;;;;;;;4994206;28;20051;-80
2022/04/06 10:47:08;;;;;;;12.18;4.78;;;;;;;;;;4995596;28;20054;-79
2022/04/06 10:49:34;;;;;;;13.65;4.78;;;;;;;;;;4977240;28;20078;-80
2022/04/06 10:52:17;;;;;;;17.23;5.38;;;;;;;;;;4976095;28;20113;-78
2022/04/06 10:54:44;;;;;;;13.10;5.07;;;;;;;;;;4974049;28;20070;-79
2022/04/06 10:57:10;;;;;;;13.55;5.32;;;;;;;;;;4974537;28;20122;-78
2022/04/06 10:59:37;;;;;;;12.95;5.10;;;;;;;;;;4993300;28;20089;-81
2022/04/06 11:02:16;;;;;;;12.68;5.80;;;;;;;;;;4993721;28;20059;-80
2022/04/06 11:04:43;;;;;;;11.90;5.00;;;;;;;;;;4993279;28;20047;-80
2022/04/06 11:07:10;;;;;;;14.23;5.47;;;;;;;;;;4991174;28;20062;-79
2022/04/06 11:12:23;;;;;;;10.25;4.63;;;;;;;;;;4992134;28;20576;-79
2022/04/06 11:15:10;;;;;;;15.25;6.35;;;;;;;;;;4992323;28;20121;-78
2022/04/06 11:17:42;;;;;;;10.68;5.28;;;;;;;;;;4973848;28;20094;-78
2022/04/06 11:20:08;;;;;;;13.60;5.10;;;;;;;;;;4990756;28;20050;-79
2022/04/06 11:22:37;;;;;;;12.70;5.47;;;;;;;;;;4976343;28;20102;-79
2022/04/06 11:25:08;;;;;;;11.38;5.40;;;;;;;;;;5007802;28;20509;-81
2022/04/06 11:27:34;;;;;;;;;;;;;;;;;;4992020;28;20529;-78
2022/04/06 11:30:02;;;;;;;11.70;5.30;;;;;;;;;;4976412;28;45138;-78
2022/04/06 11:32:29;;;;;;;11.25;4.97;;;;;;;;;;4989841;28;20078;-79
2022/04/06 11:35:15;;;;;;;14.05;5.22;;;;;;;;;;4976865;28;20118;-79
2022/04/06 11:37:42;;;;;;;11.80;5.00;;;;;;;;;;4992746;28;20054;-80
2022/04/06 11:40:11;;;;;;;12.05;4.88;;;;;;;;;;4993077;28;20059;-79
2022/04/06 11:42:38;;;;;;;8.02;4.80;;;;;;;;;;4993721;28;20106;-79
2022/04/06 11:45:05;;;;;;;12.13;5.18;;;;;;;;;;4975043;28;20528;-80
2022/04/06 11:47:33;;;;;;;11.13;5.65;;;;;;;;;;4989137;28;20086;-78
2022/04/06 11:50:00;;;;;;;12.93;4.90;;;;;;;;;;4977591;28;20066;-80
2022/04/06 11:52:26;;;;;;;14.68;6.15;;;;;;;;;;4994376;28;20224;-80
2022/04/06 11:54:56;;;;;;;11.45;6.10;;;;;;;;;;4976298;28;20090;-80
2022/04/06 11:57:33;;;;;;;10.57;5.20;;;;;;;;;;4992328;28;20082;-80
2022/04/06 12:00:00;;;;;;;11.35;5.30;;;;;;;;;;5006756;28;20038;-81
2022/04/06 12:02:26;;;;;;;14.85;5.53;;;;;;;;;;4974963;28;20671;-81
2022/04/06 12:05:02;;;;;;;15.43;6.07;;;;;;;;;;4984864;28;20058;-80
2022/04/06 12:07:28;;;;;;;11.18;5.75;;;;;;;;;;4988693;28;20051;-79
2022/04/06 12:09:54;;;;;;;11.80;5.25;;;;;;;;;;4989269;28;20095;-80
2022/04/06 12:12:23;;;;;;;8.98;5.38;;;;;;;;;;4992449;28;20110;-80
2022/04/06 12:14:51;;;;;;;16.50;6.30;;;;;;;;;;4991866;28;20573;-79
2022/04/06 12:17:18;;;;;;;13.57;5.90;;;;;;;;;;4992961;28;20145;-78
2022/04/06 12:19:44;;;;;;;13.80;6.20;;;;;;;;;;4976075;28;20553;-80
2022/04/06 12:22:11;;;;;;;11.90;6.38;;;;;;;;;;4994545;28;20059;-80
2022/04/06 12:24:41;;;;;;;14.30;5.57;;;;;;;;;;4988692;28;20086;-79
2022/04/06 12:27:08;;;;;;;9.00;5.07;;;;;;;;;;4985635;28;20109;-79
2022/04/06 12:29:35;;;;;;;10.88;5.90;;;;;;;;;;4972232;28;20129;-77
2022/04/06 12:32:03;;;;;;;16.05;6.00;;;;;;;;;;4972275;28;20055;-78
2022/04/06 12:34:29;;;;;;;14.82;6.10;;;;;;;;;;4990357;28;20050;-80
2022/04/06 12:36:56;;;;;;;16.95;6.63;;;;;;;;;;4974362;28;20054;-79
2022/04/06 12:39:22;;;;;;;17.13;7.60;;;;;;;;;;4977192;28;20030;-78
2022/04/06 12:41:53;;;;;;;15.10;7.10;;;;;;;;;;5006838;28;20146;-79
2022/04/06 12:44:20;;;;;;;13.95;7.32;;;;;;;;;;5010476;28;20049;-79
2022/04/06 12:46:47;;;;;;;17.90;7.93;;;;;;;;;;4972381;28;20090;-78
2022/04/06 12:49:17;;;;;;;18.50;8.40;;;;;;;;;;4995278;28;20059;-79
2022/04/06 12:51:44;;;;;;;16.25;7.32;;;;;;;;;;4976750;28;20062;-78
2022/04/06 12:54:12;;;;;;;14.10;6.97;;;;;;;;;;4991173;28;20422;-80
2022/04/06 12:56:38;;;;;;;15.05;7.63;;;;;;;;;;4984246;28;20114;-79
2022/04/06 12:59:05;;;;;;;14.82;7.18;;;;;;;;;;4987117;28;20098;-78
2022/04/06 13:01:31;;;;;;;13.98;6.97;;;;;;;;;;4965839;28;20196;-78
2022/04/06 13:03:58;;;;;;;17.00;7.75;;;;;;;;;;4991893;28;20058;-77
2022/04/06 13:06:24;;;;;;;14.57;7.68;;;;;;;;;;4971155;28;20079;-79
2022/04/06 13:08:50;;;;;;;14.98;7.35;;;;;;;;;;4987784;28;20142;-78
2022/04/06 13:11:37;;;;;;;13.10;6.22;;;;;;;;;;4972404;28;20531;-80
2022/04/06 13:14:03;;;;;;;14.40;7.13;;;;;;;;;;4973622;28;20089;-79
2022/04/06 13:16:30;;;;;;;12.68;6.28;;;;;;;;;;4971072;28;20148;-79
2022/04/06 13:18:56;;;;;;;24.02;7.20;;;;;;;;;;4989046;28;20047;-77
2022/04/06 13:21:25;;;;;;;16.17;7.00;;;;;;;;;;4988637;28;20078;-78
2022/04/06 13:23:51;;;;;;;15.65;6.68;;;;;;;;;;4979506;28;20055;-80
2022/04/06 13:26:17;;;;;;;16.73;7.13;;;;;;;;;;4984994;28;20070;-79
2022/04/06 13:28:44;;;;;;;13.75;5.88;;;;;;;;;;4972613;28;20062;-79
2022/04/06 13:31:10;;;;;;;13.85;7.00;;;;;;;;;;4986065;28;20158;-79
2022/04/06 13:33:36;;;;;;;11.95;6.00;;;;;;;;;;4991758;28;20078;-80
2022/04/06 13:36:04;;;;;;;12.32;5.53;;;;;;;;;;4975079;28;20057;-79
2022/04/06 13:38:31;;;;;;;9.57;5.07;;;;;;;;;;4977707;28;20066;-80
2022/04/06 13:40:57;;;;;;;13.30;4.57;;;;;;;;;;4973699;28;20141;-80
2022/04/06 13:43:23;;;;;;;10.45;5.00;;;;;;;;;;4992333;28;20058;-78
2022/04/06 13:45:50;;;;;;;8.48;4.65;;;;;;;;;;4975475;28;20097;-80
2022/04/06 13:48:19;;;;;;;9.18;4.50;;;;;;;;;;4974081;28;20505;-79
2022/04/06 13:50:46;;;;;;;10.65;5.50;;;;;;;;;;4991867;28;20055;-79
2022/04/06 13:53:12;;;;;;;14.20;5.35;;;;;;;;;;4989720;28;20513;-79
2022/04/06 13:55:39;;;;;;;11.85;5.75;;;;;;;;;;4986758;28;20066;-79
2022/04/06 13:58:05;;;;;;;9.90;5.30;;;;;;;;;;4975030;28;20117;-79
2022/04/06 14:00:34;;;;;;;11.10;4.55;;;;;;;;;;4987728;28;20137;-81
2022/04/06 14:03:02;;;;;;;11.98;4.75;;;;;;;;;;4989587;28;20059;-79
2022/04/06 14:05:31;;;;;;;12.02;5.43;;;;;;;;;;4997364;28;20375;-79
2022/04/06 14:08:03;;;;;;;9.05;5.05;;;;;;;;;;4976504;28;20138;-79
2022/04/06 14:10:29;;;;;;;11.18;5.68;;;;;;;;;;4979751;28;20510;-78
2022/04/06 14:12:56;;;;;;;8.98;4.65;;;;;;;;;;4984424;28;20066;-78
2022/04/06 14:15:22;;;;;;;11.30;5.50;;;;;;;;;;4991107;28;20650;-80
2022/04/06 14:17:48;;;;;;;9.93;5.43;;;;;;;;;;4990674;28;20050;-79
2022/04/06 14:20:15;;;;;;;11.73;6.30;;;;;;;;;;4995325;28;20082;-78
2022/04/06 14:22:44;;;;;;;10.23;5.43;;;;;;;;;;4976757;28;20098;-79
2022/04/06 14:25:17;;;;;;;12.20;5.95;;;;;;;;;;4980470;28;20039;-79
2022/04/06 14:27:49;;;;;;;9.30;6.00;;;;;;;;;;4993772;28;20074;-78
2022/04/06 14:30:24;;;;;;;11.05;6.07;;;;;;;;;;4980594;28;20062;-79
2022/04/06 14:32:52;;;;;;;13.07;6.22;;;;;;;;;;4978322;28;20069;-79
2022/04/06 14:35:19;;;;;;;9.02;5.40;;;;;;;;;;4991570;28;20058;-78
2022/04/06 14:37:46;;;;;;;9.43;5.50;;;;;;;;;;4989339;28;20051;-77
2022/04/06 14:40:13;;;;;;;10.00;5.22;;;;;;;;;;4976622;28;20089;-77
2022/04/06 14:42:39;;;;;;;10.55;5.35;;;;;;;;;;4998022;28;20051;-79
2022/04/06 14:45:06;;;;;;;10.27;5.28;;;;;;;;;;4994509;28;20098;-80
2022/04/06 14:47:32;;;;;;;11.30;5.32;;;;;;;;;;4988694;28;20593;-80